createdAt,value
2019-05-26T00:01:26.510Z,30.30
2019-05-26T00:04:02.200Z,30.30
2019-05-26T00:06:35.673Z,30.30
2019-05-26T00:09:09.006Z,30.30
2019-05-26T00:11:41.434Z,30.40
2019-05-26T00:14:13.968Z,30.40
2019-05-26T00:16:47.646Z,30.50
2019-05-26T00:19:21.120Z,30.50
2019-05-26T00:21:53.985Z,30.50
2019-05-26T00:24:28.799Z,30.50
2019-05-26T00:27:01.313Z,30.50
2019-05-26T00:29:34.937Z,30.70
2019-05-26T00:32:07.401Z,30.80
2019-05-26T00:34:39.506Z,30.80
2019-05-26T00:37:11.751Z,30.90
2019-05-26T00:39:43.458Z,30.90
2019-05-26T00:42:15.738Z,31.00
2019-05-26T00:44:49.137Z,31.10
2019-05-26T00:47:21.704Z,31.30
2019-05-26T00:49:55.209Z,31.40
2019-05-26T00:52:29.898Z,31.60
2019-05-26T00:55:02.601Z,31.90
2019-05-26T00:57:35.929Z,32.10
2019-05-26T01:00:14.898Z,32.30
2019-05-26T01:02:47.431Z,32.40
2019-05-26T01:05:22.719Z,32.40
2019-05-26T01:08:05.693Z,32.60
2019-05-26T01:10:29.679Z,32.80
2019-05-26T01:13:01.245Z,33.00
2019-05-26T01:15:34.004Z,33.20
2019-05-26T01:18:07.521Z,33.30
2019-05-26T01:20:40.167Z,33.60
2019-05-26T01:23:13.173Z,33.70
2019-05-26T01:25:44.751Z,33.70
2019-05-26T01:28:19.409Z,33.70
2019-05-26T01:30:52.366Z,33.70
2019-05-26T01:33:25.991Z,33.80
2019-05-26T01:35:59.159Z,33.70
2019-05-26T01:38:32.343Z,33.40
2019-05-26T01:41:06.184Z,33.30
2019-05-26T01:43:39.203Z,33.50
2019-05-26T01:46:13.560Z,33.60
2019-05-26T01:48:47.701Z,33.80
2019-05-26T01:51:20.462Z,34.10
2019-05-26T01:53:55.535Z,34.40
2019-05-26T01:56:32.823Z,34.80
2019-05-26T01:59:07.612Z,35.00
2019-05-26T02:01:40.169Z,35.20
2019-05-26T02:04:12.724Z,35.60
2019-05-26T02:06:44.075Z,35.80
2019-05-26T02:09:18.226Z,35.90
2019-05-26T02:11:52.490Z,36.00
2019-05-26T02:14:27.801Z,36.00
2019-05-26T02:17:00.697Z,36.10
2019-05-26T02:19:33.907Z,36.30
2019-05-26T02:22:07.460Z,36.40
2019-05-26T02:24:40.056Z,36.40
2019-05-26T02:27:12.188Z,36.40
2019-05-26T02:29:44.912Z,36.60
2019-05-26T02:32:17.305Z,36.80
2019-05-26T02:34:51.169Z,36.90
2019-05-26T02:37:23.957Z,37.00
2019-05-26T02:39:55.124Z,37.00
2019-05-26T02:42:29.980Z,37.20
2019-05-26T02:45:03.285Z,37.40
2019-05-26T02:47:36.443Z,37.50
2019-05-26T02:50:11.565Z,37.70
2019-05-26T02:52:45.792Z,37.40
2019-05-26T02:55:20.421Z,37.40
2019-05-26T02:57:53.104Z,37.50
2019-05-26T03:00:38.519Z,37.70
2019-05-26T03:03:12.205Z,37.80
2019-05-26T03:05:48.246Z,37.80
2019-05-26T03:08:21.929Z,38.00
2019-05-26T03:10:55.915Z,38.10
2019-05-26T03:13:30.694Z,38.30
2019-05-26T03:16:03.850Z,38.20
2019-05-26T03:18:38.350Z,38.20
2019-05-26T03:21:15.628Z,38.40
2019-05-26T03:23:50.868Z,38.20
2019-05-26T03:26:24.882Z,38.10
2019-05-26T03:28:57.407Z,38.10
2019-05-26T03:31:30.341Z,37.80
2019-05-26T03:34:03.121Z,37.90
2019-05-26T03:36:36.572Z,37.90
2019-05-26T03:39:09.879Z,37.70
2019-05-26T03:41:42.640Z,37.60
2019-05-26T03:44:15.032Z,37.60
2019-05-26T03:46:48.581Z,37.60
2019-05-26T03:49:21.525Z,37.60
2019-05-26T03:51:54.399Z,37.60
2019-05-26T03:54:26.184Z,37.80
2019-05-26T03:56:59.124Z,37.90
2019-05-26T03:59:32.166Z,37.90
2019-05-26T04:02:05.174Z,37.90
2019-05-26T04:04:37.810Z,38.00
2019-05-26T04:07:13.300Z,38.00
2019-05-26T04:10:03.718Z,37.90
2019-05-26T04:12:24.519Z,37.90
2019-05-26T04:14:56.908Z,37.80
2019-05-26T04:17:29.575Z,37.70
2019-05-26T04:20:00.748Z,37.60
2019-05-26T04:22:34.643Z,37.60
2019-05-26T04:25:07.394Z,37.60
2019-05-26T04:27:40.697Z,37.60
2019-05-26T04:30:15.720Z,37.50
2019-05-26T04:32:48.722Z,37.50
2019-05-26T04:35:21.859Z,37.50
2019-05-26T04:37:56.703Z,37.40
2019-05-26T04:40:30.856Z,37.30
2019-05-26T04:43:04.040Z,37.10
2019-05-26T04:45:37.662Z,37.10
2019-05-26T04:48:10.677Z,37.10
2019-05-26T04:50:43.057Z,37.00
2019-05-26T04:53:15.631Z,37.00
2019-05-26T04:55:48.161Z,37.00
2019-05-26T04:58:20.817Z,37.00
2019-05-26T05:00:53.158Z,36.90
2019-05-26T05:03:25.731Z,37.00
2019-05-26T05:05:57.847Z,37.00
2019-05-26T05:08:30.709Z,37.10
2019-05-26T05:11:03.183Z,37.30
2019-05-26T05:13:34.848Z,37.40
2019-05-26T05:16:07.172Z,37.50
2019-05-26T05:18:39.504Z,37.60
2019-05-26T05:21:12.458Z,37.60
2019-05-26T05:23:45.647Z,37.40
2019-05-26T05:26:18.148Z,37.10
2019-05-26T05:28:51.679Z,37.00
2019-05-26T05:31:25.134Z,37.00
2019-05-26T05:33:57.964Z,37.10
2019-05-26T05:36:32.084Z,37.30
2019-05-26T05:39:06.504Z,37.60
2019-05-26T05:41:39.366Z,37.80
2019-05-26T05:44:11.937Z,38.10
2019-05-26T05:46:44.511Z,38.10
2019-05-26T05:49:17.326Z,38.20
2019-05-26T05:51:50.424Z,38.10
2019-05-26T05:54:22.866Z,38.00
2019-05-26T05:56:55.873Z,38.20
2019-05-26T05:59:29.110Z,38.40
2019-05-26T06:02:01.903Z,38.50
2019-05-26T06:04:35.091Z,38.60
2019-05-26T06:07:07.398Z,38.70
2019-05-26T06:09:39.952Z,38.70
2019-05-26T06:12:12.540Z,38.70
2019-05-26T06:14:45.450Z,38.60
2019-05-26T06:17:17.700Z,38.60
2019-05-26T06:19:50.830Z,38.50
2019-05-26T06:22:23.954Z,38.80
2019-05-26T06:24:57.733Z,38.90
2019-05-26T06:27:30.998Z,38.90
2019-05-26T06:30:03.843Z,38.80
2019-05-26T06:32:36.923Z,38.80
2019-05-26T06:35:20.226Z,38.70
2019-05-26T06:37:55.384Z,38.50
2019-05-26T06:40:27.734Z,38.80
2019-05-26T06:43:00.359Z,39.30
2019-05-26T06:45:33.460Z,39.70
2019-05-26T06:48:06.196Z,40.30
2019-05-26T06:50:38.048Z,40.90
2019-05-26T06:53:10.394Z,41.30
2019-05-26T06:55:42.972Z,41.60
2019-05-26T06:58:15.651Z,42.00
2019-05-26T07:00:48.372Z,42.30
2019-05-26T07:03:21.010Z,42.70
2019-05-26T07:05:53.689Z,42.80
2019-05-26T07:08:26.036Z,43.10
2019-05-26T07:10:58.560Z,43.20
2019-05-26T07:13:31.267Z,43.10
2019-05-26T07:16:04.201Z,43.30
2019-05-26T07:18:36.635Z,43.70
2019-05-26T07:21:09.084Z,43.70
2019-05-26T07:23:41.826Z,43.60
2019-05-26T07:26:14.776Z,43.60
2019-05-26T07:28:47.813Z,43.60
2019-05-26T07:31:20.508Z,43.50
2019-05-26T07:33:52.957Z,43.60
2019-05-26T07:36:25.707Z,43.50
2019-05-26T07:38:58.524Z,43.10
2019-05-26T07:41:31.025Z,42.80
2019-05-26T07:44:04.247Z,42.30
2019-05-26T07:46:36.619Z,41.80
2019-05-26T07:49:09.127Z,41.60
2019-05-26T07:51:40.649Z,41.70
2019-05-26T07:54:25.075Z,41.90
2019-05-26T07:56:46.989Z,42.10
2019-05-26T07:59:20.055Z,42.50
2019-05-26T08:01:52.768Z,42.80
2019-05-26T08:04:25.628Z,43.40
2019-05-26T08:06:59.193Z,43.60
2019-05-26T08:09:32.629Z,43.80
2019-05-26T08:12:06.570Z,43.90
2019-05-26T08:14:39.694Z,44.00
2019-05-26T08:17:10.822Z,44.00
2019-05-26T08:19:43.250Z,44.00
2019-05-26T08:22:15.338Z,43.70
2019-05-26T08:24:48.328Z,43.10
2019-05-26T08:27:20.900Z,43.00
2019-05-26T08:29:53.585Z,43.30
2019-05-26T08:32:26.406Z,43.10
2019-05-26T08:34:59.051Z,42.30
2019-05-26T08:37:31.928Z,41.70
2019-05-26T08:40:21.398Z,41.60
2019-05-26T08:42:54.875Z,40.90
2019-05-26T08:45:27.232Z,40.60
2019-05-26T08:48:00.054Z,40.40
2019-05-26T08:50:34.492Z,40.10
2019-05-26T08:53:06.926Z,39.70
2019-05-26T08:55:40.756Z,39.70
2019-05-26T08:58:13.474Z,39.60
2019-05-26T09:00:45.825Z,39.50
2019-05-26T09:03:18.628Z,39.50
2019-05-26T09:05:49.668Z,39.40
2019-05-26T09:08:23.090Z,39.40
2019-05-26T09:10:55.710Z,39.30
2019-05-26T09:13:28.413Z,39.10
2019-05-26T09:16:01.116Z,39.00
2019-05-26T09:18:33.700Z,38.80
2019-05-26T09:21:05.405Z,38.70
2019-05-26T09:23:38.671Z,38.60
2019-05-26T09:26:11.956Z,38.50
2019-05-26T09:28:44.484Z,38.50
2019-05-26T09:31:16.855Z,38.50
2019-05-26T09:33:49.752Z,38.20
2019-05-26T09:36:22.116Z,38.20
2019-05-26T09:38:54.657Z,38.20
2019-05-26T09:41:31.285Z,38.20
2019-05-26T09:44:04.509Z,38.10
2019-05-26T09:46:38.066Z,37.90
2019-05-26T09:49:10.821Z,37.80
2019-05-26T09:51:43.606Z,37.60
2019-05-26T09:54:15.945Z,37.50
2019-05-26T09:56:52.936Z,37.50
2019-05-26T09:59:53.477Z,37.40
2019-05-26T10:02:26.451Z,37.30
2019-05-26T10:04:59.610Z,37.30
2019-05-26T10:07:35.537Z,37.20
2019-05-26T10:10:13.438Z,37.10
2019-05-26T10:12:46.772Z,37.10
2019-05-26T10:15:24.209Z,37.00
2019-05-26T10:17:56.300Z,36.90
2019-05-26T10:20:29.416Z,36.80
2019-05-26T10:23:01.976Z,36.70
2019-05-26T10:25:34.071Z,36.50
2019-05-26T10:28:06.434Z,36.40
2019-05-26T10:30:39.370Z,36.30
2019-05-26T10:33:11.739Z,36.00
2019-05-26T10:35:44.707Z,35.80
2019-05-26T10:38:23.314Z,35.60
2019-05-26T10:40:58.403Z,35.30
2019-05-26T10:43:44.502Z,35.00
2019-05-26T10:46:08.966Z,34.80
2019-05-26T10:48:41.846Z,34.60
2019-05-26T10:51:14.998Z,34.40
2019-05-26T10:53:47.197Z,34.30
2019-05-26T10:56:19.979Z,34.10
2019-05-26T10:58:53.395Z,33.90
2019-05-26T11:01:30.376Z,33.80
2019-05-26T11:04:02.972Z,33.80
2019-05-26T11:06:37.256Z,33.60
2019-05-26T11:09:10.619Z,33.50
2019-05-26T11:11:45.860Z,33.20
2019-05-26T11:14:18.997Z,33.00
2019-05-26T11:16:55.828Z,32.90
2019-05-26T11:19:29.170Z,32.90
2019-05-26T11:22:02.055Z,32.80
2019-05-26T11:24:33.392Z,32.70
2019-05-26T11:27:10.987Z,32.60
2019-05-26T11:29:40.362Z,32.50
2019-05-26T11:32:13.380Z,32.50
2019-05-26T11:35:00.655Z,32.40
2019-05-26T11:37:19.717Z,32.40
2019-05-26T11:39:50.721Z,32.30
2019-05-26T11:42:22.146Z,32.30
2019-05-26T11:44:53.287Z,32.30
2019-05-26T11:47:24.542Z,32.20
2019-05-26T11:49:56.002Z,32.20
2019-05-26T11:52:27.831Z,32.00
2019-05-26T11:54:58.989Z,31.90
2019-05-26T11:57:30.542Z,31.70
2019-05-26T12:00:01.902Z,31.70
2019-05-26T12:02:33.311Z,31.70
2019-05-26T12:05:06.069Z,31.70
2019-05-26T12:07:38.635Z,31.80
2019-05-26T12:10:13.863Z,31.70
2019-05-26T12:12:43.489Z,31.60
2019-05-26T12:15:17.090Z,31.70
2019-05-26T12:17:48.849Z,31.80
2019-05-26T12:20:20.201Z,31.90
2019-05-26T12:22:52.060Z,31.80
2019-05-26T12:25:23.679Z,31.70
2019-05-26T12:27:55.076Z,31.60
2019-05-26T12:30:28.071Z,31.60
2019-05-26T12:32:59.369Z,31.60
2019-05-26T12:35:47.449Z,31.70
2019-05-26T12:38:19.201Z,31.70
2019-05-26T12:40:50.657Z,31.70
2019-05-26T12:43:22.551Z,31.60
2019-05-26T12:45:53.904Z,31.50
2019-05-26T12:48:26.241Z,31.50
2019-05-26T12:51:00.154Z,31.50
2019-05-26T12:53:32.612Z,31.50
2019-05-26T12:56:04.108Z,31.50
2019-05-26T12:58:35.599Z,31.60
2019-05-26T13:01:07.078Z,31.60
2019-05-26T13:03:39.468Z,31.50
2019-05-26T13:06:12.381Z,31.40
2019-05-26T13:08:44.481Z,31.50
2019-05-26T13:11:16.253Z,31.40
2019-05-26T13:13:47.796Z,31.40
2019-05-26T13:16:19.251Z,31.30
2019-05-26T13:18:50.868Z,31.30
2019-05-26T13:21:23.671Z,31.30
2019-05-26T13:23:55.283Z,31.20
2019-05-26T13:26:26.696Z,31.30
2019-05-26T13:28:58.280Z,31.40
2019-05-26T13:31:29.922Z,31.40
2019-05-26T13:34:01.254Z,31.40
2019-05-26T13:36:32.808Z,31.40
2019-05-26T13:39:06.656Z,31.30
2019-05-26T13:41:40.045Z,31.30
2019-05-26T13:44:11.461Z,31.40
2019-05-26T13:46:43.285Z,31.40
2019-05-26T13:49:14.667Z,31.40
2019-05-26T13:51:49.706Z,31.30
2019-05-26T13:54:18.934Z,31.30
2019-05-26T13:56:51.396Z,31.20
2019-05-26T13:59:22.961Z,31.20
2019-05-26T14:01:55.667Z,31.10
2019-05-26T14:04:28.058Z,31.10
2019-05-26T14:06:59.760Z,31.20
2019-05-26T14:09:30.917Z,31.30
2019-05-26T14:12:02.287Z,31.20
2019-05-26T14:14:33.473Z,31.30
2019-05-26T14:17:05.036Z,31.20
2019-05-26T14:19:36.248Z,31.20
2019-05-26T14:22:07.868Z,31.20
2019-05-26T14:24:53.247Z,31.20
2019-05-26T14:27:14.151Z,31.20
2019-05-26T14:29:45.652Z,31.30
2019-05-26T14:32:16.632Z,31.20
2019-05-26T14:34:47.580Z,31.20
2019-05-26T14:37:19.259Z,31.20
2019-05-26T14:39:51.041Z,31.10
2019-05-26T14:42:22.561Z,31.10
2019-05-26T14:44:54.052Z,31.10
2019-05-26T14:47:26.209Z,31.00
2019-05-26T14:49:57.336Z,31.00
2019-05-26T14:52:28.796Z,31.10
2019-05-26T14:55:00.240Z,31.10
2019-05-26T14:57:32.247Z,31.20
2019-05-26T15:00:03.554Z,31.10
2019-05-26T15:02:35.351Z,31.10
2019-05-26T15:05:07.790Z,31.10
2019-05-26T15:07:39.360Z,31.10
2019-05-26T15:10:12.304Z,31.00
2019-05-26T15:12:44.067Z,31.00
2019-05-26T15:15:16.386Z,30.90
2019-05-26T15:17:47.679Z,30.90
2019-05-26T15:20:19.339Z,30.90
2019-05-26T15:22:51.110Z,30.90
2019-05-26T15:27:40.503Z,30.90
2019-05-26T15:30:13.978Z,31.00
2019-05-26T15:32:47.866Z,31.00
2019-05-26T15:35:20.451Z,30.90
2019-05-26T15:37:53.326Z,30.80
2019-05-26T15:40:25.516Z,30.80
2019-05-26T15:42:58.688Z,30.80
2019-05-26T15:45:31.206Z,30.80
2019-05-26T15:48:04.289Z,30.90
2019-05-26T15:50:36.521Z,30.90
2019-05-26T15:53:09.367Z,30.90
2019-05-26T15:55:40.695Z,30.80
2019-05-26T15:58:13.447Z,30.90
2019-05-26T16:01:05.801Z,31.00
2019-05-26T16:03:38.951Z,31.10
2019-05-26T16:06:10.272Z,31.10
2019-05-26T16:08:43.208Z,31.10
2019-05-26T16:11:15.023Z,31.10
2019-05-26T16:13:47.657Z,31.10
2019-05-26T16:16:19.141Z,31.10
2019-05-26T16:18:53.220Z,31.10
2019-05-26T16:21:28.376Z,31.10
2019-05-26T16:24:00.937Z,31.10
2019-05-26T16:26:33.694Z,31.10
2019-05-26T16:29:07.107Z,31.10
2019-05-26T16:31:39.607Z,31.10
2019-05-26T16:34:12.413Z,31.00
2019-05-26T16:36:43.591Z,31.10
2019-05-26T16:39:16.345Z,31.10
2019-05-26T16:41:47.556Z,31.10
2019-05-26T16:44:20.347Z,31.20
2019-05-26T16:46:56.471Z,31.20
2019-05-26T16:49:28.059Z,31.30
2019-05-26T16:52:00.654Z,31.30
2019-05-26T16:54:34.665Z,31.30
2019-05-26T16:57:07.401Z,31.20
2019-05-26T16:59:40.849Z,31.30
2019-05-26T17:02:13.224Z,31.20
2019-05-26T17:04:45.908Z,31.20
2019-05-26T17:07:18.291Z,31.20
2019-05-26T17:09:51.420Z,31.10
2019-05-26T17:12:22.561Z,31.00
2019-05-26T17:14:55.371Z,31.00
2019-05-26T17:17:27.965Z,30.80
2019-05-26T17:19:59.355Z,30.80
2019-05-26T17:22:31.709Z,30.90
2019-05-26T17:25:03.166Z,30.90
2019-05-26T17:27:35.253Z,30.80
2019-05-26T17:30:09.653Z,30.80
2019-05-26T17:32:42.217Z,30.70
2019-05-26T17:35:15.858Z,30.70
2019-05-26T17:37:48.122Z,30.70
2019-05-26T17:40:23.337Z,30.60
2019-05-26T17:42:55.806Z,30.60
2019-05-26T17:45:28.689Z,30.70
2019-05-26T17:48:00.992Z,30.70
2019-05-26T17:50:33.546Z,30.50
2019-05-26T17:53:05.986Z,30.50
2019-05-26T17:55:39.170Z,30.40
2019-05-26T17:58:11.575Z,30.30
2019-05-26T18:00:44.273Z,30.40
2019-05-26T18:03:15.496Z,30.40
2019-05-26T18:06:01.211Z,30.40
2019-05-26T18:08:36.352Z,30.30
2019-05-26T18:11:09.142Z,30.40
2019-05-26T18:13:42.046Z,30.30
2019-05-26T18:16:14.920Z,30.30
2019-05-26T18:18:46.463Z,30.20
2019-05-26T18:21:19.179Z,30.20
2019-05-26T18:23:50.821Z,30.20
2019-05-26T18:26:23.043Z,30.20
2019-05-26T18:28:55.882Z,30.20
2019-05-26T18:31:29.147Z,30.10
2019-05-26T18:34:02.078Z,30.20
2019-05-26T18:36:34.324Z,30.10
2019-05-26T18:39:09.980Z,30.20
2019-05-26T18:41:42.301Z,30.20
2019-05-26T18:44:14.958Z,30.20
2019-05-26T18:46:47.423Z,30.10
2019-05-26T18:49:19.076Z,30.20
2019-05-26T18:51:51.634Z,30.00
2019-05-26T18:54:24.352Z,30.00
2019-05-26T18:56:56.654Z,29.90
2019-05-26T18:59:29.600Z,29.90
2019-05-26T19:02:02.304Z,29.80
2019-05-26T19:04:33.802Z,29.80
2019-05-26T19:07:06.080Z,29.80
2019-05-26T19:09:38.998Z,29.90
2019-05-26T19:12:11.706Z,29.90
2019-05-26T19:14:43.457Z,29.90
2019-05-26T19:17:15.949Z,29.90
2019-05-26T19:19:48.739Z,29.80
2019-05-26T19:22:21.156Z,29.80
2019-05-26T19:24:53.880Z,29.70
2019-05-26T19:27:26.451Z,29.70
2019-05-26T19:29:59.264Z,29.70
2019-05-26T19:32:31.715Z,29.80
2019-05-26T19:35:04.378Z,29.70
2019-05-26T19:37:37.417Z,29.80
2019-05-26T19:40:11.373Z,29.80
2019-05-26T19:42:43.891Z,29.70
2019-05-26T19:45:16.074Z,29.70
2019-05-26T19:47:48.266Z,29.70
2019-05-26T19:50:21.149Z,29.70
2019-05-26T19:52:53.830Z,29.70
2019-05-26T19:55:26.499Z,29.70
2019-05-26T19:57:58.835Z,29.60
2019-05-26T20:00:33.355Z,29.70
2019-05-26T20:03:05.774Z,29.70
2019-05-26T20:05:38.464Z,29.80
2019-05-26T20:08:11.312Z,29.80
2019-05-26T20:10:43.041Z,29.80
2019-05-26T20:13:15.391Z,29.70
2019-05-26T20:15:48.021Z,29.60
2019-05-26T20:18:20.513Z,29.60
2019-05-26T20:20:53.661Z,29.60
2019-05-26T20:23:26.170Z,29.50
2019-05-26T20:25:58.865Z,29.40
2019-05-26T20:28:31.216Z,29.30
2019-05-26T20:31:04.149Z,29.30
2019-05-26T20:33:36.797Z,29.30
2019-05-26T20:36:09.438Z,29.30
2019-05-26T20:38:41.838Z,29.30
2019-05-26T20:41:14.499Z,29.30
2019-05-26T20:43:46.850Z,29.30
2019-05-26T20:46:19.860Z,29.30
2019-05-26T20:48:52.263Z,29.20
2019-05-26T20:51:25.151Z,29.20
2019-05-26T20:53:57.992Z,29.20
2019-05-26T20:56:30.569Z,29.20
2019-05-26T20:59:02.976Z,29.20
2019-05-26T21:01:34.660Z,29.20
2019-05-26T21:04:07.669Z,29.20
2019-05-26T21:06:40.216Z,29.20
2019-05-26T21:09:12.789Z,29.20
2019-05-26T21:11:45.738Z,29.20
2019-05-26T21:14:18.019Z,29.10
2019-05-26T21:16:50.812Z,29.20
2019-05-26T21:19:23.189Z,29.30
2019-05-26T21:21:55.824Z,29.20
2019-05-26T21:24:28.553Z,29.20
2019-05-26T21:27:01.384Z,29.20
2019-05-26T21:29:33.843Z,29.10
2019-05-26T21:32:06.850Z,29.10
2019-05-26T21:34:40.192Z,29.20
2019-05-26T21:37:12.981Z,29.20
2019-05-26T21:39:45.914Z,29.10
2019-05-26T21:42:18.455Z,29.10
2019-05-26T21:44:51.246Z,29.10
2019-05-26T21:47:23.654Z,29.10
2019-05-26T21:49:56.130Z,29.10
2019-05-26T21:52:28.651Z,29.10
2019-05-26T21:55:00.956Z,29.00
2019-05-26T21:57:54.552Z,29.10
2019-05-26T22:00:29.344Z,29.10
2019-05-26T22:03:04.030Z,29.10
2019-05-26T22:05:36.614Z,29.00
2019-05-26T22:08:09.634Z,29.10
2019-05-26T22:10:42.103Z,29.10
2019-05-26T22:13:15.092Z,29.00
2019-05-26T22:15:47.120Z,29.10
2019-05-26T22:18:20.167Z,29.00
2019-05-26T22:20:52.728Z,29.00
2019-05-26T22:23:26.196Z,29.00
2019-05-26T22:25:59.945Z,29.00
2019-05-26T22:28:32.701Z,29.00
2019-05-26T22:31:05.089Z,29.00
2019-05-26T22:33:38.882Z,29.00
2019-05-26T22:36:10.495Z,29.00
2019-05-26T22:38:43.045Z,29.00
2019-05-26T22:41:15.383Z,29.00
2019-05-26T22:43:48.563Z,29.10
2019-05-26T22:46:20.839Z,29.10
2019-05-26T22:48:53.596Z,29.10
2019-05-26T22:51:25.226Z,29.10
2019-05-26T22:53:57.926Z,29.10
2019-05-26T22:56:30.919Z,29.10
2019-05-26T22:59:03.805Z,29.10
2019-05-26T23:01:36.265Z,29.10
2019-05-26T23:04:08.034Z,29.20
2019-05-26T23:06:40.728Z,29.20
2019-05-26T23:09:12.449Z,29.20
2019-05-26T23:11:44.824Z,29.20
2019-05-26T23:14:17.706Z,29.30
2019-05-26T23:16:50.336Z,29.30
2019-05-26T23:19:23.184Z,29.40
2019-05-26T23:21:54.859Z,29.30
2019-05-26T23:24:29.339Z,29.30
2019-05-26T23:27:02.296Z,29.40
2019-05-26T23:29:35.173Z,29.30
2019-05-26T23:32:07.598Z,29.30
2019-05-26T23:34:40.225Z,29.30
2019-05-26T23:37:13.203Z,29.50
2019-05-26T23:39:45.704Z,29.50
2019-05-26T23:42:18.028Z,29.60
2019-05-26T23:44:50.563Z,29.60
2019-05-26T23:47:23.569Z,29.60
2019-05-26T23:49:56.129Z,29.50
2019-05-26T23:52:29.060Z,29.50
2019-05-26T23:55:01.632Z,29.60
2019-05-26T23:57:38.330Z,29.50
